Sansarc, South Dakota
Current Conditions -  °F | °C
As of 6:53 AM on Monday 24 Nov 2014 (Local Time) from KPIR Reporting Station
Clear Clear  
Wind Chill:   Ceiling: Unl
Heat Index: 19°   Visibility: 10mi
Dew Point: 14°   Wind: 21mph
Humidity: 81%   Direction: 330°NNW
Pressure: 29.79"   Gusts: 29mph
Location:  44.4554°N, 100.84°W
Report Text: KPIR 241353Z AUTO 33018G25KT 10SM CLR M07/M10 A2979 RMK AO2 PK WND 32026/1302 SLP110 T10721100
Loading
Personal Weather Stations






























Interactive Weather Map New forecast layout! Learn more

10-Day Weather Forecast

Advertisements
Track Severe Weather on mobile